Meteo Giornale » Osservazioni meteo Italia » Perugia

ore: 18:23 - Osservazioni Meteo Perugia
Lat. 43° 5' N Lon. 12° 30' E Alt. 208 metri s.l.m.

molto_nuvoloso Europe/Rome

12 °C

Molto Nuvoloso

Temp. 24 Ore

11 °C

17 °C

Est/Sud-Est

11.1 Km/h

Dew point 12 °C

Umidità 100 %

Visibilità  10 Km

Il sole sorge alle ore 07:01

Il sole tramonta alle ore 16:47

Data e Ora Cielo e Fenomeni T °C DP °C Um. % Pres. hPa Vis. km Vento km/h
Oggi h: 18:23 molto_nuvoloso Molto Nuvoloso 12 12 100 1004 10 E/SE 11.1
Oggi h: 17:50 coperto_pioggia Pioggia 12 11 93 1003 6 N 3.7
Oggi h: 16:50 coperto_pioggia Pioggia Foschia 13 11 87 1003 5 O 7.4
Oggi h: 15:50 nuvoloso_temporali Temporale con Pioggia Debole 14 11 82 1002 9 S/SE 13
Oggi h: 15:25 nuvoloso_temporali Temporale con Pioggia Debole 15 9 67 1003 3 S 37
Oggi h: 14:50 coperto_temporali Temporale 17 9 59 1002 9 S 24
Oggi h: 13:50 coperto_temporali Temporale 17 9 59 1002 9 S 13
Oggi h: 12:50 molto_nuvoloso Molto Nuvoloso 15 11 76 1001 10 N 5.5
Oggi h: 11:50 molto_nuvoloso Molto Nuvoloso 13 11 87 1003 9 N 13
Oggi h: 10:50 coperto_pioggia Pioggia Debole 12 11 93 1005 9 N/NE 9.3
Oggi h: 09:50 coperto_pioggia Pioggia 11 11 100 1005 8 N 5.5
Oggi h: 08:50 nuvoloso_temporali Temporale con Pioggia Debole 13 10 81 1005 7 N 5.5
Oggi h: 07:50 molto_nuvoloso Molto Nuvoloso 13 10 81 1005 10 S/SE 11.1
Oggi h: 06:50 molto_nuvoloso Molto Nuvoloso 13 11 87 1004 10 S/SE 11.1
Oggi h: 05:50 molto_nuvoloso Molto Nuvoloso 13 11 87 1005 10 S/SE 7.4
Oggi h: 04:50 molto_nuvoloso Molto Nuvoloso 12 11 93 1004 10 E/SE 7.4
Oggi h: 03:50 molto_nuvoloso Molto Nuvoloso 12 11 93 1005 10 O/SO 9.3
Oggi h: 03:38 foschia Foschia 12 11 93 1005 5 SO 9.3
Oggi h: 03:26 foschia Foschia 13 10 81 1005 1 S/SO 9.3
Oggi h: 02:50 molto_nuvoloso Molto Nuvoloso 13 10 81 1005 10 SO 7.4
Oggi h: 01:50 molto_nuvoloso Molto Nuvoloso 14 9 71 1005 10 S/SE 13
Oggi h: 00:50 molto_nuvoloso Molto Nuvoloso 14 9 71 1005 10 SE 11.1
Ieri h: 23:50 molto_nuvoloso Molto Nuvoloso 13 10 81 1006 10 SE 13
Ieri h: 22:50 nuvoloso Nuvoloso 12 11 93 1006 10 N 1.8
Ieri h: 21:50 nuvoloso Nuvoloso 12 10 87 1006 10 N 5.5
Ieri h: 20:50 nuvoloso Nuvoloso 12 11 93 1006 10 N 5.5
Ieri h: 19:50 nuvoloso Nuvoloso 12 11 93 1007 10 N 3.7
Ieri h: 18:50 molto_nuvoloso Molto Nuvoloso 12 10 87 1006 10 N 5.5